Logo AVAMET
Benvolgut visitant, si us plau, ingressa Recuperar contrasenya

Elx Torrellano CEIP Antonio Machado

Dades diàries. Acumulats / Últims 30 dies disponibles

Data Temperatura (°C) Humitat rel. (%) Pressió rel. (hPa) Vent (km/h) Precipitació
Mínima Mitjana Màxima Amplitud
tèrmica
Mínima Mitjana Màxima Mínima Mitjana Màxima Predom. Mitjana Ràfega
màxima
Total
(mm)
Índex-n
Mínima Mitjana Màxima Mínima Mitjana Màxima n
0 a 1
P0 max
mm 5'
Dades mensuals acumulades fins l'últim dia disponible
12/2019 10,3 11,1 12,1 13,6 14,1 16,6 20,1 9,8 50 80 93 1.005 1.016 1.026   5,3 40,2 52,0
Dades anuals acumulades fins l'últim dia disponible
2019 2,4 15,3 25,8 19,2 12,8 23,6 37,3 34,9 13 65 96 988 1.018 1.037   6,3 70,8 633,8
Últims 30 dies disponibles
06-12-2019 11,4     13,9     17,6 6,2 60 79 88 1.023 1.024 1.026 SO 3,1 16,1 0,0
05-12-2019 10,5     13,4     16,1 5,6 74 81 88 1.012 1.018 1.024 SE 3,1 17,7 0,0
04-12-2019 11,0     12,6     15,4 4,4 68 81 90 1.005 1.008 1.012 OSO 4,5 30,6 17,6 0,68 2,40
03-12-2019 11,0     12,7     14,1 3,1 65 79 92 1.010 1.014 1.017 NE 10,6 40,2 21,0 0,42 3,60
02-12-2019 12,1     14,1     16,3 4,2 72 83 93 1.012 1.015 1.018 ENE 6,3 27,4 13,4 0,39 1,30
01-12-2019 10,3     14,7     20,1 9,8 50 75 90 1.013 1.014 1.017 N 3,9 22,5 0,0
30-11-2019 12,6     16,4     21,6 9,0 54 75 90 1.017 1.021 1.023 O 5,4 20,9 0,0
29-11-2019 11,9     17,7     21,8 9,9 54 62 74 1.019 1.021 1.023 WNW 7,5 38,6 0,0
28-11-2019 11,9     16,0     21,1 9,2 47 63 86 1.017 1.019 1.021 WNW 6,1 35,4 0,0
27-11-2019 12,0     17,5     23,2 11,2 38 62 84 1.012 1.014 1.017 NW 7,6 41,8 0,0
26-11-2019 12,8     16,8     22,9 10,1 52 70 85 1.013 1.015 1.018 W 4,4 25,7 0,0
25-11-2019 10,6     15,9     22,1 11,5 55 66 77 1.015 1.017 1.018 WSW 3,9 22,5 0,0
24-11-2019 11,4     14,0     17,2 5,8 42 53 61 1.010 1.015 1.017 WNW 9,3 54,7 0,0
23-11-2019 10,1     14,2     17,2 7,1 42 65 95 997 1.002 1.010 WNW 11,8 62,8 0,2
22-11-2019 9,8     12,5     14,1 4,3 82 88 96 998 1.006 1.011 NW 2,4 12,9 12,6
21-11-2019 7,8     12,6     16,9 9,1 64 78 88 1.011 1.012 1.013 W 2,6 12,9 0,8
20-11-2019 8,3     12,2     16,4 8,1 48 67 88 1.012 1.014 1.018 WNW 4,1 17,7 0,8
19-11-2019 7,7     11,4     16,5 8,8 40 55 67 1.017 1.019 1.020 WNW 6,5 30,6 0,0
18-11-2019 9,6     13,0     17,1 7,5 43 62 91 1.009 1.013 1.019 NW 6,6 25,7 7,2
17-11-2019 6,4     12,6     18,1 11,7 38 54 74 1.012 1.016 1.018 W 7,0 32,2 1,6
16-11-2019 8,5     11,8     15,8 7,3 37 51 63 1.009 1.013 1.018 NW 10,1 37,0 0,0
15-11-2019 9,0     11,7     14,8 5,8 41 55 69 1.004 1.007 1.009 W 6,9 43,5 0,0
14-11-2019 10,1     13,2     16,8 6,7 49 75 92 1.003 1.007 1.013 W 6,9 43,5 0,6
13-11-2019 12,2     16,8     22,8 10,6 36 62 85 1.008 1.011 1.015 WNW 6,9 48,3 0,2
12-11-2019 10,9     14,8     19,2 8,3 31 43 61 1.012 1.013 1.015 WNW 9,4 33,8 0,0
11-11-2019 9,4     13,5     17,4 8,0 40 52 63 1.013 1.016 1.017 NW 10,6 43,5 0,0
10-11-2019 11,5     14,3     16,6 5,1 38 51 74 1.013 1.015 1.017 NW 15,2 61,2 0,0
09-11-2019 11,3     14,8     20,2 8,9 27 47 70 1.017 1.020 1.023 NW 9,0 49,9 0,0
08-11-2019 11,7     14,3     17,4 5,7 36 45 59 1.013 1.016 1.021 WNW 11,9 53,1 0,0
07-11-2019 11,4     16,5     22,5 11,1 33 53 68 1.010 1.013 1.016 W 7,0 37,0 0,0
Últims 13 mesos disponibles
11/2019 6,4 11,7 19,8 15,6 14,1 20,0 28,1 21,7 43 59 88 1.002 1.014 1.021 WNW 7,7 62,8 24,0
10/2019 10,4 16,7 21,3 20,6 16,3 25,1 30,2 19,8 48 70 89 1.011 1.019 1.024 WNW 5,1 45,1 38,2
09/2019 15,4 20,4 24,2 23,9 22,2 27,8 32,0 16,6 56 77 89 1.012 1.019 1.023 ENE 5,4 53,1 207,0
08/2019 19,6 22,9 25,4 26,6 27,7 30,8 37,3 17,7 51 72 82 1.012 1.018 1.022 E 5,8 40,2 87,8
07/2019 20,7 23,4 25,8 27,1 27,6 31,0 35,6 14,9 42 64 80 1.008 1.016 1.022 E 6,8 45,1 0,2
06/2019 14,7 18,9 23,8 23,2 22,5 27,4 34,1 19,4 43 63 82 1.011 1.017 1.024 ENE 6,7 48,3 0,2
05/2019 11,9 15,6 20,3 19,4 19,7 23,6 30,6 18,7 48 67 82 1.008 1.018 1.027 SE 5,6 49,9 1,8
04/2019 7,0 12,0 15,9 15,8 14,7 20,2 28,6 21,6 43 68 89 1.002 1.015 1.027 E 6,6 56,3 197,4
03/2019 8,6 10,5 15,6 14,8 14,3 19,5 28,2 19,6 31 59 89 1.013 1.025 1.032 ENE 6,0 45,1 18,8
02/2019 5,0 8,5 11,5 12,7 14,5 17,5 20,8 15,8 35 61 76 990 1.024 1.035 NE 3,4 70,8 3,2
01/2019 2,4 8,0 13,0 12,2 12,8 17,2 21,9 19,5 38 56 78 997 1.012 1.023 E 7,2 57,9 3,2
12/2018 6,7 10,3 14,2 14,2 15,2 19,2 25,5 18,8 44 66 81 1.002 1.018 1.024 ESE 6,2 72,4 12,0
11/2018 6,6 11,8 16,1 15,4 15,0 19,8 23,1 16,5 45 68 86 993 1.008 1.015 ESE 5,8 59,5 39,0
Tots els anys disponibles
Temperatura (°C)
Humitat relativa (%)
Velocitat del vent i ràfega màxima (km/h)
Direcció del vent (°)
Pressió (hPa)
Precipitació (mm)
Nota sobre les dades: s'avisa a l'usuari de la provisionalitat i no oficialitat d'aquestes dades
Logo AVAMET blanc
Web allotjada a Sollutia
Llicència de Creative CommonsLa web d'AVAMET i els seus continguts estan subjectes a una llicència de
Reconeixement - No Comercial - Compartir igual
Últimes estacions: Aielo de Malferit - Centre (Soci), Faura (Inforatge), Benifairó de les Valls (Inforatge), Xàbia - Les Valls (Soci), Xàbia - Alt de la Granadella (Soci), Villena - Sierra de Salinas (Soci), Sueca - Centre (Inforatge) - - -